Time;durP1;ratioP1;P1;durP2;ratioP2;P2;SDS_P1;SDS_P2;PMS_P1;PMS_P2;Temp;Humidity;BMP_temperature;BMP_pressure;BME280_temperature;BME280_humidity;BME280_pressure;Samples;Min_cycle;Max_cycle;Signal;HPM_P1;HPM_P2
2024/01/22 00:01:23;;;;;;;3.78;2.47;;;;;;;6.06;100.00;100952.19;5009111;28;20072;-71
2024/01/22 00:03:48;;;;;;;7.30;1.20;;;;;;;6.13;100.00;100943.84;5004538;28;20042;-72
2024/01/22 00:06:14;;;;;;;3.42;1.50;;;;;;;6.18;100.00;100925.47;4999392;28;20041;-70
2024/01/22 00:08:39;;;;;;;3.42;1.30;;;;;;;6.27;100.00;100932.41;5022404;28;20045;-72
2024/01/22 00:11:05;;;;;;;5.40;1.45;;;;;;;6.47;100.00;100930.00;5007212;28;20100;-71
2024/01/22 00:13:31;;;;;;;6.93;1.85;;;;;;;6.40;100.00;100920.22;5021456;28;20033;-71
2024/01/22 00:15:56;;;;;;;3.38;1.70;;;;;;;6.57;100.00;100917.97;5019604;28;20030;-71
2024/01/22 00:18:22;;;;;;;7.68;2.22;;;;;;;6.48;100.00;100929.03;5016934;28;20046;-72
2024/01/22 00:20:47;;;;;;;4.18;1.40;;;;;;;6.50;100.00;100929.72;5019029;28;20060;-72
2024/01/22 00:23:13;;;;;;;2.88;1.25;;;;;;;6.54;100.00;100921.63;4987369;28;20041;-72
2024/01/22 00:25:38;;;;;;;4.93;1.58;;;;;;;6.51;100.00;100916.72;5005222;28;20026;-71
2024/01/22 00:28:04;;;;;;;3.95;1.35;;;;;;;6.47;100.00;100899.91;5002333;28;20795;-72
2024/01/22 00:30:29;;;;;;;3.72;1.33;;;;;;;6.51;100.00;100905.63;5022592;28;20087;-72
2024/01/22 00:32:55;;;;;;;7.35;1.75;;;;;;;6.41;100.00;100888.34;5005546;28;20044;-72
2024/01/22 00:35:21;;;;;;;2.78;1.38;;;;;;;6.53;100.00;100876.19;5021319;28;20037;-72
2024/01/22 00:37:46;;;;;;;6.13;1.52;;;;;;;6.51;100.00;100872.13;5006289;28;20046;-72
2024/01/22 00:40:12;;;;;;;6.07;1.50;;;;;;;6.54;100.00;100864.16;5021795;28;20048;-72
2024/01/22 00:42:38;;;;;;;5.28;1.52;;;;;;;6.66;100.00;100852.00;5011759;28;20168;-72
2024/01/22 00:45:04;;;;;;;7.78;1.80;;;;;;;6.56;100.00;100850.19;5006969;28;20626;-71
2024/01/22 00:47:29;;;;;;;3.60;1.75;;;;;;;6.57;100.00;100844.09;5019223;28;20533;-72
2024/01/22 00:49:55;;;;;;;4.40;1.42;;;;;;;6.57;100.00;100820.06;5024169;28;20403;-70
2024/01/22 00:52:20;;;;;;;4.18;1.38;;;;;;;6.53;100.00;100810.97;5003860;28;20045;-72
2024/01/22 00:54:45;;;;;;;6.15;1.52;;;;;;;6.64;100.00;100792.84;5007167;28;20566;-72
2024/01/22 00:57:11;;;;;;;6.28;1.73;;;;;;;6.89;100.00;100791.56;4993587;28;20040;-72
2024/01/22 00:59:36;;;;;;;3.50;1.20;;;;;;;6.74;100.00;100787.72;4991958;28;20424;-73
2024/01/22 01:02:03;;;;;;;3.55;1.55;;;;;;;6.83;100.00;100790.31;5009949;28;20080;-72
2024/01/22 01:04:29;;;;;;;9.00;1.50;;;;;;;6.86;100.00;100804.72;5018963;28;20065;-72
2024/01/22 01:06:54;;;;;;;3.78;1.27;;;;;;;6.80;100.00;100793.19;5007279;28;20029;-72
2024/01/22 01:09:20;;;;;;;3.17;1.23;;;;;;;6.61;100.00;100780.22;5005820;28;20523;-72
2024/01/22 01:11:45;;;;;;;3.88;1.30;;;;;;;6.67;100.00;100777.13;5016225;28;20048;-73
2024/01/22 01:14:10;;;;;;;4.50;1.15;;;;;;;6.76;100.00;100767.78;5021155;28;20044;-72
2024/01/22 01:16:36;;;;;;;2.63;1.27;;;;;;;6.91;100.00;100753.59;5017664;28;20048;-72
2024/01/22 01:19:01;;;;;;;7.40;1.40;;;;;;;6.79;100.00;100734.81;5005564;28;20038;-72
2024/01/22 01:21:27;;;;;;;5.32;1.80;;;;;;;6.90;100.00;100733.91;5021607;28;21723;-73
2024/01/22 01:23:52;;;;;;;6.15;1.50;;;;;;;6.94;100.00;100726.72;5008728;28;20037;-72
2024/01/22 01:26:18;;;;;;;4.25;1.35;;;;;;;7.02;100.00;100714.78;5003885;28;20041;-73
2024/01/22 01:28:43;;;;;;;2.67;1.40;;;;;;;7.01;100.00;100717.50;5020579;28;20049;-73
2024/01/22 01:31:09;;;;;;;3.72;1.77;;;;;;;7.06;100.00;100707.59;5008153;28;20064;-72
2024/01/22 01:33:35;;;;;;;4.93;1.40;;;;;;;6.96;100.00;100714.50;5018388;28;20041;-73
2024/01/22 01:36:00;;;;;;;3.20;1.40;;;;;;;7.05;100.00;100726.59;5006754;28;20128;-72
2024/01/22 01:38:26;;;;;;;6.32;1.80;;;;;;;7.05;100.00;100739.50;5004395;28;20060;-72
2024/01/22 01:40:51;;;;;;;2.67;1.33;;;;;;;7.05;100.00;100747.22;5004143;28;20044;-72
2024/01/22 01:43:19;;;;;;;3.30;1.30;;;;;;;6.94;100.00;100743.00;4999143;28;20037;-72
2024/01/22 01:45:45;;;;;;;3.00;1.30;;;;;;;6.87;100.00;100752.22;5004677;28;20045;-72
2024/01/22 01:48:12;;;;;;;4.88;1.23;;;;;;;6.94;100.00;100761.03;5001223;28;20034;-72
2024/01/22 01:50:38;;;;;;;4.97;1.40;;;;;;;7.09;100.00;100768.41;5000473;28;20041;-73
2024/01/22 01:53:05;;;;;;;4.57;1.48;;;;;;;7.02;100.00;100765.53;5019543;28;20040;-72
2024/01/22 01:55:31;;;;;;;7.25;1.38;;;;;;;7.04;100.00;100762.81;5024133;28;20048;-72
2024/01/22 01:57:59;;;;;;;4.55;1.50;;;;;;;7.13;100.00;100762.84;5007442;28;20396;-72
2024/01/22 02:00:25;;;;;;;2.70;1.58;;;;;;;6.97;100.00;100753.06;5005748;28;20045;-72
2024/01/22 02:02:50;;;;;;;2.92;1.00;;;;;;;6.94;100.00;100750.72;5025270;28;20080;-72
2024/01/22 02:05:16;;;;;;;3.70;1.15;;;;;;;7.08;100.00;100752.09;5005018;28;20537;-73
2024/01/22 02:07:42;;;;;;;4.27;1.30;;;;;;;6.95;100.00;100747.22;5021697;23;20133;-74
2024/01/22 02:10:12;;;;;;;3.75;1.27;;;;;;;6.86;100.00;100747.22;5053849;23;20445;-77
2024/01/22 02:12:38;;;;;;;4.00;1.45;;;;;;;6.88;100.00;100727.25;5040218;28;20401;-76
2024/01/22 02:15:05;;;;;;;3.78;1.30;;;;;;;6.88;100.00;100730.66;5029088;28;20049;-77
2024/01/22 02:17:30;;;;;;;3.85;1.17;;;;;;;7.18;100.00;100729.72;5044719;28;20028;-76
2024/01/22 02:19:56;;;;;;;3.88;1.10;;;;;;;7.21;100.00;100710.56;5029332;28;20102;-76
2024/01/22 02:22:22;;;;;;;2.83;1.30;;;;;;;7.26;100.00;100703.25;5032395;28;20086;-76
2024/01/22 02:24:47;;;;;;;3.28;1.08;;;;;;;7.38;100.00;100699.59;5028243;28;20040;-77
2024/01/22 02:27:13;;;;;;;6.18;2.05;;;;;;;7.26;100.00;100692.94;5044661;28;20045;-77
2024/01/22 02:29:38;;;;;;;2.72;1.00;;;;;;;7.48;100.00;100678.09;5029779;28;20043;-77
2024/01/22 02:32:04;;;;;;;3.13;1.02;;;;;;;7.43;100.00;100663.03;5026290;28;22201;-76
2024/01/22 02:34:29;;;;;;;3.50;1.30;;;;;;;7.52;100.00;100651.91;5044175;28;20132;-76
2024/01/22 02:36:55;;;;;;;3.38;1.13;;;;;;;7.46;100.00;100623.25;5030319;28;20040;-77
2024/01/22 02:39:20;;;;;;;4.35;1.23;;;;;;;7.58;100.00;100617.78;5049589;28;20033;-76
2024/01/22 02:41:46;;;;;;;2.70;1.15;;;;;;;7.65;100.00;100620.63;5013139;28;20103;-77
2024/01/22 02:44:11;;;;;;;10.77;4.32;;;;;;;7.80;100.00;100637.28;5043623;28;20040;-76
2024/01/22 02:46:37;;;;;;;2.90;1.58;;;;;;;7.78;100.00;100628.06;5028980;28;20024;-76
2024/01/22 02:49:02;;;;;;;6.18;1.60;;;;;;;7.85;100.00;100629.09;5051194;28;20036;-76
2024/01/22 02:51:28;;;;;;;4.90;1.10;;;;;;;7.87;100.00;100626.38;5042962;28;20052;-77
2024/01/22 02:53:53;;;;;;;2.90;1.17;;;;;;;7.90;100.00;100636.44;5045372;28;20037;-76
2024/01/22 02:56:20;;;;;;;2.63;0.90;;;;;;;7.89;100.00;100622.72;5013915;28;20793;-77
2024/01/22 02:58:46;;;;;;;3.10;1.27;;;;;;;8.01;100.00;100617.38;5045981;28;20059;-77
2024/01/22 03:01:11;;;;;;;3.28;0.98;;;;;;;7.88;100.00;100630.59;5048490;28;20129;-77
2024/01/22 03:03:37;;;;;;;4.10;1.23;;;;;;;7.85;100.00;100620.53;5051904;28;20115;-76
2024/01/22 03:06:02;;;;;;;1.35;0.90;;;;;;;7.96;100.00;100630.69;5047288;28;20021;-77
2024/01/22 03:08:28;;;;;;;3.03;1.15;;;;;;;8.01;100.00;100619.94;5023419;28;20463;-76
2024/01/22 03:10:53;;;;;;;2.47;1.17;;;;;;;8.03;100.00;100615.44;5032665;28;20025;-77
2024/01/22 03:13:19;;;;;;;4.57;1.13;;;;;;;8.15;100.00;100625.41;5060686;28;20526;-77
2024/01/22 03:15:44;;;;;;;2.00;1.08;;;;;;;8.08;100.00;100608.06;5039508;28;20074;-77
2024/01/22 03:18:10;;;;;;;3.33;0.90;;;;;;;8.07;100.00;100596.94;5028846;28;20421;-77
2024/01/22 03:20:37;;;;;;;2.88;1.30;;;;;;;8.27;100.00;100571.81;5028888;28;20124;-75
2024/01/22 03:23:04;;;;;;;2.97;0.90;;;;;;;8.39;100.00;100578.38;5018611;28;20052;-77
2024/01/22 03:25:29;;;;;;;3.03;0.90;;;;;;;8.35;100.00;100577.03;5045390;28;20104;-76
2024/01/22 03:27:55;;;;;;;1.83;0.90;;;;;;;8.49;100.00;100567.19;5043558;28;20036;-76
2024/01/22 03:30:20;;;;;;;1.95;1.10;;;;;;;8.26;100.00;100559.84;5030061;28;20393;-77
2024/01/22 03:32:46;;;;;;;3.17;1.10;;;;;;;8.34;100.00;100541.84;5044776;28;20033;-77
2024/01/22 03:35:12;;;;;;;2.63;1.00;;;;;;;8.32;100.00;100543.72;5044389;28;20499;-76
2024/01/22 03:37:37;;;;;;;1.27;0.82;;;;;;;8.44;100.00;100530.63;5010512;28;20548;-77
2024/01/22 03:40:03;;;;;;;1.35;0.80;;;;;;;8.28;100.00;100521.75;5024024;28;20091;-77
2024/01/22 03:42:29;;;;;;;4.80;1.10;;;;;;;8.34;100.00;100525.50;5013047;28;20033;-77
2024/01/22 03:44:54;;;;;;;2.90;0.93;;;;;;;8.51;100.00;100505.81;5058136;28;20043;-76
2024/01/22 03:47:20;;;;;;;5.13;2.35;;;;;;;8.39;100.00;100524.09;5045455;28;20412;-77
2024/01/22 03:49:45;;;;;;;3.05;2.22;;;;;;;8.46;100.00;100506.28;5011714;28;20029;-77
2024/01/22 03:52:11;;;;;;;2.30;1.25;;;;;;;8.33;100.00;100504.03;5030989;28;20537;-77
2024/01/22 03:54:36;;;;;;;5.57;1.90;;;;;;;8.30;100.00;100506.09;5010256;28;20041;-76
2024/01/22 03:57:06;;;;;;;3.22;1.20;;;;;;;8.31;100.00;100493.03;5042321;28;20028;-77
2024/01/22 03:59:33;;;;;;;2.35;1.45;;;;;;;8.47;100.00;100494.16;5053279;28;20533;-76
2024/01/22 04:01:59;;;;;;;2.47;1.45;;;;;;;8.30;100.00;100480.28;5025319;28;20032;-77
2024/01/22 04:04:24;;;;;;;3.10;1.00;;;;;;;8.35;100.00;100485.81;5027008;28;20060;-77
2024/01/22 04:06:50;;;;;;;5.13;0.90;;;;;;;8.36;100.00;100472.75;5016716;28;20033;-77
2024/01/22 04:09:15;;;;;;;1.30;0.90;;;;;;;8.31;100.00;100463.81;5005086;28;20087;-77
2024/01/22 04:11:41;;;;;;;3.83;1.50;;;;;;;8.19;100.00;100468.38;5025069;28;20497;-77
2024/01/22 04:14:07;;;;;;;3.70;2.03;;;;;;;8.29;100.00;100465.75;5026737;28;20039;-77
2024/01/22 04:16:32;;;;;;;3.40;0.90;;;;;;;8.26;100.00;100473.78;5018596;28;20029;-77
2024/01/22 04:18:58;;;;;;;4.05;0.95;;;;;;;8.32;100.00;100450.72;5040424;28;20070;-77
2024/01/22 04:21:23;;;;;;;2.70;1.00;;;;;;;8.37;100.00;100456.28;5024318;28;20034;-77
2024/01/22 04:23:49;;;;;;;1.58;0.80;;;;;;;8.33;100.00;100456.72;5023350;28;20036;-77
2024/01/22 04:26:14;;;;;;;2.45;1.10;;;;;;;8.30;100.00;100442.31;5026673;28;20378;-77
2024/01/22 04:28:40;;;;;;;2.72;1.05;;;;;;;8.30;100.00;100454.44;5044496;28;20041;-76
2024/01/22 04:31:06;;;;;;;1.27;0.80;;;;;;;8.29;100.00;100427.00;5042773;28;20479;-75
2024/01/22 04:33:32;;;;;;;2.10;1.00;;;;;;;8.23;100.00;100449.06;5011318;28;20029;-77
2024/01/22 04:35:58;;;;;;;1.85;0.70;;;;;;;8.25;100.00;100444.56;5025637;28;20037;-76
2024/01/22 04:38:24;;;;;;;3.05;0.80;;;;;;;8.29;100.00;100439.91;5015204;28;20449;-77
2024/01/22 04:40:49;;;;;;;1.00;0.80;;;;;;;8.35;100.00;100436.72;5042044;28;20060;-77
2024/01/22 04:43:15;;;;;;;2.40;0.73;;;;;;;8.43;100.00;100447.13;5041772;28;20041;-76
2024/01/22 04:45:41;;;;;;;5.15;1.05;;;;;;;8.44;100.00;100447.94;5041080;28;20257;-76
2024/01/22 04:48:06;;;;;;;1.40;1.00;;;;;;;8.50;100.00;100404.22;5038496;28;20483;-76
2024/01/22 04:50:32;;;;;;;2.88;0.70;;;;;;;8.53;100.00;100436.69;5023342;28;20033;-77
2024/01/22 04:52:57;;;;;;;1.58;0.80;;;;;;;8.47;100.00;100432.16;5011615;28;20033;-77
2024/01/22 04:55:23;;;;;;;1.65;0.95;;;;;;;8.54;100.00;100422.84;5027105;28;20028;-77
2024/01/22 04:57:48;;;;;;;2.13;0.80;;;;;;;8.57;100.00;100422.53;5022560;28;20029;-77
2024/01/22 05:00:14;;;;;;;1.70;1.00;;;;;;;8.67;100.00;100425.81;5028293;28;20041;-76
2024/01/22 05:02:40;;;;;;;1.67;1.08;;;;;;;8.74;100.00;100406.16;5048973;28;20102;-76
2024/01/22 05:05:06;;;;;;;6.60;0.90;;;;;;;8.76;100.00;100411.97;5039990;28;20124;-76
2024/01/22 05:07:31;;;;;;;1.27;0.50;;;;;;;8.87;100.00;100410.09;5024881;28;20162;-76
2024/01/22 05:09:58;;;;;;;2.33;0.80;;;;;;;8.91;100.00;100411.38;5024108;28;20040;-77
2024/01/22 05:12:24;;;;;;;1.10;0.70;;;;;;;8.90;100.00;100410.59;5042387;28;20030;-77
2024/01/22 05:14:53;;;;;;;4.38;0.77;;;;;;;8.91;100.00;100403.63;5042536;28;20041;-74
2024/01/22 05:17:19;;;;;;;2.92;0.70;;;;;;;8.93;100.00;100412.88;5042455;28;20037;-76
2024/01/22 05:19:44;;;;;;;1.70;0.60;;;;;;;9.04;100.00;100416.13;5044188;28;20044;-75
2024/01/22 05:22:10;;;;;;;6.55;0.80;;;;;;;9.09;100.00;100416.50;5047708;28;20044;-76
2024/01/22 05:24:36;;;;;;;1.67;0.70;;;;;;;9.08;100.00;100405.34;5045880;28;20049;-76
2024/01/22 05:27:03;;;;;;;1.95;0.68;;;;;;;9.14;100.00;100415.06;5016034;28;20039;-76
2024/01/22 05:29:28;;;;;;;1.30;0.70;;;;;;;9.16;100.00;100399.38;5014987;28;20037;-76
2024/01/22 05:31:54;;;;;;;3.00;0.60;;;;;;;9.18;100.00;100394.06;5044709;28;20024;-77
2024/01/22 05:34:19;;;;;;;1.15;0.50;;;;;;;9.31;100.00;100386.66;5046162;28;20499;-76
2024/01/22 05:36:46;;;;;;;2.22;0.70;;;;;;;9.33;100.00;100403.63;5032465;28;20037;-75
2024/01/22 05:39:12;;;;;;;1.80;0.70;;;;;;;9.33;100.00;100388.13;5029947;28;20041;-76
2024/01/22 05:41:38;;;;;;;4.82;1.55;;;;;;;9.41;100.00;100395.09;5049783;28;20029;-76
2024/01/22 05:44:04;;;;;;;1.17;0.50;;;;;;;9.31;100.00;100384.88;5021516;28;20044;-77
2024/01/22 05:46:30;;;;;;;1.20;0.40;;;;;;;9.41;100.00;100389.91;5015233;28;20459;-77
2024/01/22 05:48:55;;;;;;;2.20;0.47;;;;;;;9.50;100.00;100373.44;5029439;28;20033;-77
2024/01/22 05:51:21;;;;;;;1.92;0.50;;;;;;;9.59;100.00;100382.03;5028787;28;20025;-73
2024/01/22 05:53:47;;;;;;;1.25;0.98;;;;;;;9.48;100.00;100370.19;5044919;28;20041;-74
2024/01/22 05:56:25;;;;;;;2.33;0.57;;;;;;;9.48;100.00;100375.38;5046269;28;20032;-73
2024/01/22 05:58:51;;;;;;;0.88;0.40;;;;;;;9.46;100.00;100361.78;5058080;28;20033;-73
2024/01/22 06:01:21;;;;;;;1.20;0.50;;;;;;;9.61;100.00;100358.59;5030495;28;20037;-76
2024/01/22 06:03:46;;;;;;;0.80;0.50;;;;;;;9.51;100.00;100366.47;5020417;28;20041;-75
2024/01/22 06:06:13;;;;;;;0.90;0.65;;;;;;;9.51;100.00;100350.94;5029860;28;20032;-76
2024/01/22 06:08:41;;;;;;;1.70;1.20;;;;;;;9.66;100.00;100372.66;5046898;28;20039;-75
2024/01/22 06:11:06;;;;;;;1.05;0.50;;;;;;;9.68;100.00;100370.72;5027775;28;20112;-76
2024/01/22 06:13:32;;;;;;;2.15;0.40;;;;;;;9.68;100.00;100354.34;5029619;28;20514;-76
2024/01/22 06:15:58;;;;;;;0.65;0.40;;;;;;;9.64;100.00;100356.47;5061340;28;20098;-76
2024/01/22 06:18:24;;;;;;;1.42;0.52;;;;;;;9.77;100.00;100337.88;5028446;28;20091;-75
2024/01/22 06:20:49;;;;;;;0.88;0.40;;;;;;;9.80;100.00;100353.09;5044958;28;20041;-76
2024/01/22 06:23:15;;;;;;;0.90;0.40;;;;;;;9.78;100.00;100356.81;5049080;28;20048;-76
2024/01/22 06:25:40;;;;;;;1.60;0.47;;;;;;;9.82;100.00;100351.16;5059858;28;20434;-76
2024/01/22 06:28:05;;;;;;;2.22;0.52;;;;;;;9.72;100.00;100337.56;5026599;28;20033;-76
2024/01/22 06:30:31;;;;;;;1.52;0.55;;;;;;;9.73;100.00;100357.28;5024479;28;20486;-75
2024/01/22 06:32:56;;;;;;;0.52;0.40;;;;;;;9.69;100.00;100359.38;5026914;28;20036;-76
2024/01/22 06:35:22;;;;;;;0.90;0.40;;;;;;;9.67;100.00;100355.34;5047337;28;20065;-76
2024/01/22 06:37:47;;;;;;;1.40;0.60;;;;;;;9.68;100.00;100365.53;5056030;28;20034;-76
2024/01/22 06:40:16;;;;;;;1.52;0.38;;;;;;;9.57;100.00;100344.31;5063231;28;20041;-73
2024/01/22 06:42:42;;;;;;;0.82;0.40;;;;;;;9.54;100.00;100350.63;5010691;28;20036;-73
2024/01/22 06:45:08;;;;;;;1.23;0.40;;;;;;;9.49;100.00;100343.38;5047682;28;20056;-75
2024/01/22 06:47:34;;;;;;;0.80;0.50;;;;;;;9.53;100.00;100349.00;5027326;28;20033;-73
2024/01/22 06:49:59;;;;;;;0.63;0.32;;;;;;;9.57;100.00;100345.16;5045066;28;20069;-74
2024/01/22 06:52:25;;;;;;;1.70;0.68;;;;;;;9.41;100.00;100340.75;5014685;28;20695;-74
2024/01/22 06:54:51;;;;;;;1.33;0.70;;;;;;;9.40;100.00;100351.25;5050065;28;20402;-75
2024/01/22 06:57:16;;;;;;;1.55;0.60;;;;;;;9.50;100.00;100333.81;5044652;28;20029;-73
2024/01/22 06:59:42;;;;;;;3.03;0.70;;;;;;;9.57;100.00;100352.09;5041315;28;20029;-76
2024/01/22 07:02:07;;;;;;;2.58;0.45;;;;;;;9.57;100.00;100342.56;5026573;28;20037;-76
2024/01/22 07:04:33;;;;;;;1.42;0.55;;;;;;;9.58;100.00;100348.53;5038788;28;20033;-76
2024/01/22 07:06:58;;;;;;;1.20;0.45;;;;;;;9.65;100.00;100323.63;5045331;28;20528;-76
2024/01/22 07:09:24;;;;;;;1.88;1.02;;;;;;;9.59;100.00;100348.38;5010490;28;20036;-76
2024/01/22 07:11:49;;;;;;;1.30;0.52;;;;;;;9.69;100.00;100348.22;5027706;28;20648;-75
2024/01/22 07:14:16;;;;;;;1.88;0.63;;;;;;;9.75;100.00;100361.31;5027698;28;20089;-76
2024/01/22 07:16:41;;;;;;;0.80;0.38;;;;;;;9.73;100.00;100367.66;5024943;28;20037;-75
2024/01/22 07:19:07;;;;;;;3.13;0.70;;;;;;;9.85;100.00;100357.75;5039821;28;20033;-75
2024/01/22 07:21:33;;;;;;;2.00;0.68;;;;;;;9.88;100.00;100347.09;5013268;28;20028;-76
2024/01/22 07:23:58;;;;;;;3.70;0.80;;;;;;;9.99;100.00;100358.91;5024469;28;20045;-71
2024/01/22 07:26:24;;;;;;;1.17;0.50;;;;;;;10.07;100.00;100364.09;5024158;28;20679;-75
2024/01/22 07:28:49;;;;;;;2.67;0.60;;;;;;;10.03;100.00;100383.53;5054990;28;20040;-75
2024/01/22 07:31:15;;;;;;;3.83;0.68;;;;;;;10.19;100.00;100378.34;5009274;28;20091;-75
2024/01/22 07:33:40;;;;;;;1.67;0.65;;;;;;;10.08;100.00;100373.50;5043643;28;20044;-74
2024/01/22 07:36:06;;;;;;;1.65;0.63;;;;;;;10.06;100.00;100378.03;5045099;28;20059;-74
2024/01/22 07:38:33;;;;;;;2.20;0.60;;;;;;;10.03;100.00;100396.47;5029651;28;20128;-75
2024/01/22 07:40:58;;;;;;;1.70;0.93;;;;;;;10.03;100.00;100412.00;5045429;28;20063;-75
2024/01/22 07:43:24;;;;;;;4.53;0.75;;;;;;;10.07;100.00;100402.94;5049779;28;20056;-75
2024/01/22 07:45:50;;;;;;;1.48;0.60;;;;;;;10.05;100.00;100410.06;5032150;28;20040;-75
2024/01/22 07:48:15;;;;;;;0.80;0.60;;;;;;;9.97;100.00;100410.06;5018317;28;20181;-75
2024/01/22 07:50:41;;;;;;;1.27;0.40;;;;;;;9.98;100.00;100416.88;5033741;28;20037;-75
2024/01/22 07:53:07;;;;;;;2.78;0.60;;;;;;;9.86;100.00;100435.31;5010746;28;20045;-72
2024/01/22 07:55:33;;;;;;;1.48;0.55;;;;;;;9.83;100.00;100433.06;5017448;28;20039;-72
2024/01/22 07:57:59;;;;;;;1.48;0.63;;;;;;;9.82;100.00;100428.03;5038990;28;20399;-73
2024/01/22 08:00:24;;;;;;;0.80;0.50;;;;;;;9.76;100.00;100439.84;5012065;28;20091;-72
2024/01/22 08:02:50;;;;;;;2.38;0.63;;;;;;;9.75;100.00;100439.00;5042917;28;20033;-75
2024/01/22 08:05:16;;;;;;;4.93;0.88;;;;;;;9.67;100.00;100443.38;5046653;28;20368;-76
2024/01/22 08:07:43;;;;;;;1.90;0.80;;;;;;;9.69;100.00;100436.25;5027507;28;20106;-75
2024/01/22 08:10:09;;;;;;;1.20;0.80;;;;;;;9.65;100.00;100437.53;5066045;23;20394;-71
2024/01/22 08:12:34;;;;;;;1.13;0.65;;;;;;;9.68;100.00;100432.03;5062269;28;20038;-71
2024/01/22 08:15:00;;;;;;;1.65;0.85;;;;;;;9.69;100.00;100442.22;5064503;28;20071;-71
2024/01/22 08:17:25;;;;;;;3.58;0.85;;;;;;;9.62;100.00;100435.25;5039734;28;20041;-71
2024/01/22 08:19:51;;;;;;;1.13;0.60;;;;;;;9.51;100.00;100426.84;5048685;28;20045;-71
2024/01/22 08:22:16;;;;;;;3.20;0.80;;;;;;;9.48;100.00;100432.31;5041679;28;20665;-71
2024/01/22 08:24:42;;;;;;;1.90;1.02;;;;;;;9.60;100.00;100432.03;5023286;28;20083;-71
2024/01/22 08:27:08;;;;;;;3.10;0.93;;;;;;;9.57;100.00;100409.88;5042240;28;20037;-71
2024/01/22 08:29:33;;;;;;;1.15;0.60;;;;;;;9.59;100.00;100410.50;5041584;28;20039;-71
2024/01/22 08:31:59;;;;;;;1.52;0.70;;;;;;;9.64;100.00;100416.00;5026132;28;20033;-70
2024/01/22 08:34:24;;;;;;;1.00;0.68;;;;;;;9.69;100.00;100415.53;5024250;28;20065;-71
2024/01/22 08:36:50;;;;;;;3.22;0.70;;;;;;;9.61;100.00;100415.53;5043892;28;20040;-71
2024/01/22 08:39:15;;;;;;;3.47;1.25;;;;;;;9.68;100.00;100412.16;5039405;28;20398;-71
2024/01/22 08:41:41;;;;;;;2.72;0.75;;;;;;;9.67;100.00;100420.06;5042303;28;20036;-71
2024/01/22 08:44:06;;;;;;;2.88;0.80;;;;;;;9.72;100.00;100417.81;5023283;28;20037;-72
2024/01/22 08:46:33;;;;;;;4.50;0.80;;;;;;;9.79;100.00;100415.38;5046787;28;20033;-71
2024/01/22 08:48:58;;;;;;;1.83;0.70;;;;;;;9.76;100.00;100416.53;5042454;28;20343;-71
2024/01/22 08:51:25;;;;;;;2.67;0.73;;;;;;;9.82;100.00;100431.41;5026828;28;20028;-71
2024/01/22 08:53:50;;;;;;;1.70;0.63;;;;;;;9.83;100.00;100412.34;5008793;28;20052;-71
2024/01/22 08:56:16;;;;;;;1.13;0.50;;;;;;;9.76;100.00;100408.75;5040892;28;20029;-71
2024/01/22 08:58:41;;;;;;;2.65;0.60;;;;;;;9.85;100.00;100425.09;5040180;28;20064;-71
2024/01/22 09:01:07;;;;;;;4.03;0.93;;;;;;;9.85;100.00;100418.16;5042158;28;20032;-71
2024/01/22 09:03:32;;;;;;;1.33;0.60;;;;;;;9.78;100.00;100416.38;5046706;28;20028;-70
2024/01/22 09:05:59;;;;;;;1.27;0.60;;;;;;;9.90;100.00;100410.69;5025551;28;20052;-72
2024/01/22 09:08:25;;;;;;;3.05;0.75;;;;;;;9.83;100.00;100406.31;5032281;28;20577;-71
2024/01/22 09:10:51;;;;;;;3.35;0.80;;;;;;;9.86;100.00;100393.06;5042937;28;20037;-71
2024/01/22 09:13:16;;;;;;;6.10;0.85;;;;;;;9.84;100.00;100405.38;5045696;28;20056;-71
2024/01/22 09:15:42;;;;;;;5.03;1.52;;;;;;;9.89;100.00;100396.16;5044815;28;20049;-71
2024/01/22 09:18:10;;;;;;;4.07;0.80;;;;;;;9.89;100.00;100414.28;5050983;28;20037;-71
2024/01/22 09:20:35;;;;;;;1.70;0.60;;;;;;;9.82;100.00;100404.72;5018617;28;20090;-71
2024/01/22 09:23:01;;;;;;;3.55;1.00;;;;;;;9.97;100.00;100399.72;5030115;28;20025;-71
2024/01/22 09:25:26;;;;;;;5.78;1.08;;;;;;;9.89;100.00;100400.53;5048845;28;20491;-71
2024/01/22 09:27:52;;;;;;;4.45;0.90;;;;;;;9.91;100.00;100391.63;5045201;28;20036;-71
2024/01/22 09:30:17;;;;;;;5.78;0.95;;;;;;;10.05;100.00;100386.75;5043857;28;20079;-71
2024/01/22 09:32:43;;;;;;;8.80;1.30;;;;;;;10.06;100.00;100393.56;5013507;28;20036;-71
2024/01/22 09:35:08;;;;;;;5.20;0.90;;;;;;;10.19;100.00;100378.34;5046167;28;20033;-70
2024/01/22 09:37:34;;;;;;;4.47;1.20;;;;;;;10.24;100.00;100394.19;5045841;28;20040;-71
2024/01/22 09:40:00;;;;;;;7.50;1.20;;;;;;;10.28;100.00;100403.28;5026936;28;20037;-71
2024/01/22 09:42:26;;;;;;;11.25;2.05;;;;;;;10.31;100.00;100404.75;5044680;28;20024;-71
2024/01/22 09:44:53;;;;;;;7.28;1.10;;;;;;;10.32;100.00;100412.38;5026395;28;20592;-71
2024/01/22 09:47:20;;;;;;;3.70;1.17;;;;;;;10.49;100.00;100402.78;5028736;28;20617;-71
2024/01/22 09:49:49;;;;;;;10.10;2.00;;;;;;;10.48;100.00;100402.94;5040512;28;20040;-71
2024/01/22 09:52:17;;;;;;;5.93;1.10;;;;;;;10.46;100.00;100389.34;5044539;28;20033;-71
2024/01/22 09:54:43;;;;;;;6.97;0.88;;;;;;;10.56;100.00;100402.91;5043471;28;20040;-71
2024/01/22 09:57:16;;;;;;;4.47;1.10;;;;;;;10.54;100.00;100411.84;5045079;28;20479;-71
2024/01/22 09:59:42;;;;;;;7.70;1.10;;;;;;;10.66;100.00;100406.16;5023857;28;20048;-71
2024/01/22 10:02:12;;;;;;;10.95;1.48;;;;;;;10.55;100.00;100411.69;5030429;28;20043;-71
2024/01/22 10:04:38;;;;;;;6.90;1.27;;;;;;;10.67;100.00;100422.50;5010663;28;20068;-71
2024/01/22 10:07:05;;;;;;;5.38;1.58;;;;;;;10.70;100.00;100415.22;5041071;28;20483;-71
2024/01/22 10:09:31;;;;;;;7.75;1.48;;;;;;;10.64;100.00;100417.66;5024029;28;20038;-71
2024/01/22 10:11:57;;;;;;;10.60;1.33;;;;;;;10.64;100.00;100407.28;5013753;28;20036;-72
2024/01/22 10:14:30;;;;;;;8.48;1.20;;;;;;;10.78;100.00;100400.59;5044738;28;20041;-72
2024/01/22 10:16:56;;;;;;;8.60;1.35;;;;;;;10.76;100.00;100405.16;5025619;28;20441;-71
2024/01/22 10:19:25;;;;;;;9.40;1.60;;;;;;;10.76;100.00;100389.59;5022651;28;20095;-70
2024/01/22 10:22:08;;;;;;;6.20;0.93;;;;;;;10.73;100.00;100401.09;5024107;28;20383;-71
2024/01/22 10:24:34;;;;;;;7.18;1.35;;;;;;;10.89;100.00;100393.28;5039463;28;20102;-71
2024/01/22 10:27:13;;;;;;;14.65;1.60;;;;;;;10.83;100.00;100396.53;5046271;28;20053;-71
2024/01/22 10:29:39;;;;;;;9.32;2.30;;;;;;;10.90;100.00;100396.66;5038301;28;20025;-71
2024/01/22 10:32:05;;;;;;;7.35;1.25;;;;;;;10.86;100.00;100385.00;5021886;28;20440;-71
2024/01/22 10:34:41;;;;;;;4.70;1.25;;;;;;;10.98;100.00;100386.28;5042040;28;20034;-71
2024/01/22 10:37:09;;;;;;;7.63;2.00;;;;;;;11.03;100.00;100368.41;5041874;28;20040;-72
2024/01/22 10:39:37;;;;;;;7.82;1.63;;;;;;;11.01;100.00;100378.13;5039509;28;20059;-71
2024/01/22 10:42:14;;;;;;;9.55;1.77;;;;;;;11.13;100.00;100377.75;5022572;28;20048;-71
2024/01/22 10:44:43;;;;;;;6.30;1.00;;;;;;;11.24;100.00;100382.56;5026610;28;20043;-71
2024/01/22 10:47:11;;;;;;;12.82;2.38;;;;;;;11.26;100.00;100391.00;5029203;28;20032;-71
2024/01/22 10:49:37;;;;;;;8.52;1.20;;;;;;;11.21;100.00;100378.53;5043216;28;20032;-72
2024/01/22 10:52:03;;;;;;;7.40;1.10;;;;;;;11.20;100.00;100389.09;5041377;28;20047;-70
2024/01/22 10:54:29;;;;;;;4.78;0.80;;;;;;;11.17;100.00;100377.28;5020355;28;20051;-71
2024/01/22 10:57:14;;;;;;;3.72;0.70;;;;;;;11.18;100.00;100370.28;5023864;28;20040;-71
2024/01/22 10:59:45;;;;;;;3.45;1.00;;;;;;;11.23;100.00;100378.38;5041880;28;20037;-71
2024/01/22 11:02:32;;;;;;;5.70;1.05;;;;;;;11.07;100.00;100385.25;5044008;28;20030;-71
2024/01/22 11:05:15;;;;;;;10.38;0.95;;;;;;;11.18;100.00;100372.88;5041742;28;20052;-71
2024/01/22 11:07:40;;;;;;;5.47;1.10;;;;;;;11.15;100.00;100374.03;5020938;28;20045;-71
2024/01/22 11:10:09;;;;;;;8.80;1.55;;;;;;;11.14;100.00;100382.78;5038958;28;20529;-71
2024/01/22 11:12:43;;;;;;;5.75;0.77;;;;;;;11.07;100.00;100387.03;5042277;28;20036;-71
2024/01/22 11:15:10;;;;;;;9.93;1.17;;;;;;;11.02;100.00;100365.97;5010788;28;20541;-71
2024/01/22 11:17:35;;;;;;;8.75;1.13;;;;;;;10.98;100.00;100355.16;5040744;28;20029;-71
2024/01/22 11:20:18;;;;;;;6.30;0.73;;;;;;;11.02;100.00;100363.38;5039998;28;20131;-72